Indianapolis, Indiana
Traffic Map
Current Weather Conditions
Indianapolis, Indiana
Clear
Clear
29°
Feels Like: 19°
Wind Chill: 19° Ceiling: Unl
Heat Index: 29° Visibility: 10mi
Dew Point: 10° Wind: 12mph
Humidity: 45% Direction: 150° (SSE)
Pressure: 30.45in Gusts: 0mph
Raw Report DataKIND 211754Z 15010KT 10SM CLR M02/M12 A3045 RMK AO2 SLP324 T10171122 11011 21111 58011
Traffic Incident Summary
Active as of:
Severity:
Category:
InformationThere was an issue retrieving the traffic information for this location. Please try a different location or try again shortly.
Advertisements
Track Severe Weather on mobile